Main page
METAR-TAF:

METAR-TAF

Airports :

Lugano Airport

Lugano, Switzerland

latitude: 46-00N, longitude: 008-58E, elevation: 273 m

Current weather observation

The report was made 14 minutes ago, at 14:20 UTC
Wind 5 kt from the Southwest, varying between South and Northwest
Temperature 27°C
Humidity 51%
Pressure 1016 hPa
Visibility 10 km or more
Scattered clouds at a height of 5500 ft

METAR: LSZA 171420Z 22005KT 170V310 9999 SCT055 27/16 Q1016

Time: 16:34 (14:34 UTC)

Forecast

The report was made 3 hours and 9 minutes ago, at 11:25 UTC
Forecast valid from 17 at 12 UTC to 17 at 21 UTC
Wind 6 kt from the South
Visibility 10 km or more
Scattered clouds at a height of 4000 ft
Probability 30%
from 17 at 12 UTC to 17 at 18 UTC
Few clouds at a height of 4000 ft, Towering cumulus.
rain showers,

TAF: LSZA 171125Z 1712/1721 19006KT 9999 SCT040 PROB30 1712/1718 SHRA FEW040TCU

Weather observations and forecasts of more than 4000 airports (METAR and TAF reports).

The available stations are represented by yellow and red dots on the map.

Hover mouse over dot to see the name of the station.

Then click to see weather observations and forecasts.

To change the map : click on the green buttons with a black cross to zoom in, on the green button with a dash to zoom out, or on the green arrows for adjacent maps.


METAR-TAF: